Time;durP1;ratioP1;P1;durP2;ratioP2;P2;SDS_P1;SDS_P2;PMS_P1;PMS_P2;Temp;Humidity;BMP_temperature;BMP_pressure;BME280_temperature;BME280_humidity;BME280_pressure;Samples;Min_cycle;Max_cycle;Signal;HPM_P1;HPM_P2
2023/03/11 00:02:09;;;;;;;7.50;1.90;;;;;;;;;;4998378;28;20376;-75
2023/03/11 00:04:35;;;;;;;11.97;2.00;;;;;;;;;;5001069;28;20446;-74
2023/03/11 00:07:01;;;;;;;8.67;1.83;;;;;;;;;;4995035;28;20680;-75
2023/03/11 00:09:27;;;;;;;15.07;2.20;;;;;;;;;;5012809;28;20064;-74
2023/03/11 00:11:53;;;;;;;9.23;1.90;;;;;;;;;;4999483;28;20272;-75
2023/03/11 00:14:19;;;;;;;9.73;2.23;;;;;;;;;;5000159;28;20268;-75
2023/03/11 00:16:45;;;;;;;4.83;1.57;;;;;;;;;;4999337;28;20661;-75
2023/03/11 00:19:11;;;;;;;9.43;1.80;;;;;;;;;;5015221;28;20071;-75
2023/03/11 00:21:37;;;;;;;11.43;2.63;;;;;;;;;;5002780;28;20084;-75
2023/03/11 00:24:03;;;;;;;5.70;1.70;;;;;;;;;;5004863;28;20526;-75
2023/03/11 00:26:29;;;;;;;5.47;1.70;;;;;;;;;;5000357;28;20115;-74
2023/03/11 00:28:58;;;;;;;15.13;3.40;;;;;;;;;;4999761;28;20364;-75
2023/03/11 00:31:26;;;;;;;8.00;1.80;;;;;;;;;;5012913;28;20096;-75
2023/03/11 00:33:53;;;;;;;5.90;1.37;;;;;;;;;;5014232;28;20340;-75
2023/03/11 00:36:23;;;;;;;9.37;1.70;;;;;;;;;;5006287;28;20277;-75
2023/03/11 00:38:50;;;;;;;7.90;1.70;;;;;;;;;;5015459;28;20318;-75
2023/03/11 00:41:16;;;;;;;16.10;2.47;;;;;;;;;;5011706;28;20268;-75
2023/03/11 00:43:42;;;;;;;11.07;2.17;;;;;;;;;;5015498;28;20277;-75
2023/03/11 00:46:08;;;;;;;10.60;2.30;;;;;;;;;;5015372;28;20285;-75
2023/03/11 00:48:34;;;;;;;15.47;2.33;;;;;;;;;;4997582;28;20330;-75
2023/03/11 00:53:34;;;;;;;8.60;1.83;;;;;;;;;;5031492;28;20076;-75
2023/03/11 00:56:05;;;;;;;10.53;1.60;;;;;;;;;;5032597;28;20280;-75
2023/03/11 00:58:32;;;;;;;14.43;2.43;;;;;;;;;;5027541;28;20366;-75
2023/03/11 01:01:00;;;;;;;13.70;1.97;;;;;;;;;;5034427;28;20280;-75
2023/03/11 01:03:26;;;;;;;5.63;2.00;;;;;;;;;;5016138;28;20288;-75
2023/03/11 01:05:52;;;;;;;9.63;2.07;;;;;;;;;;5034062;28;20363;-75
2023/03/11 01:08:18;;;;;;;9.17;1.90;;;;;;;;;;5012712;28;20049;-74
2023/03/11 01:10:44;;;;;;;7.13;2.30;;;;;;;;;;5009484;28;20624;-75
2023/03/11 01:13:10;;;;;;;15.97;2.07;;;;;;;;;;5022766;28;20265;-75
2023/03/11 01:15:36;;;;;;;4.33;1.70;;;;;;;;;;5033344;28;20349;-75
2023/03/11 01:18:03;;;;;;;12.23;2.30;;;;;;;;;;5016437;28;20284;-75
2023/03/11 01:20:29;;;;;;;7.17;1.60;;;;;;;;;;5022821;28;20305;-75
2023/03/11 01:22:55;;;;;;;12.70;1.77;;;;;;;;;;5032547;28;20292;-75
2023/03/11 01:25:22;;;;;;;10.97;1.73;;;;;;;;;;5029485;28;20302;-75
2023/03/11 01:27:48;;;;;;;11.23;1.93;;;;;;;;;;5029716;28;20779;-75
2023/03/11 01:30:17;;;;;;;8.27;1.47;;;;;;;;;;5014275;28;20280;-75
2023/03/11 01:32:44;;;;;;;3.63;1.40;;;;;;;;;;5034867;28;20037;-75
2023/03/11 01:35:12;;;;;;;7.67;2.03;;;;;;;;;;5030169;28;20315;-75
2023/03/11 01:37:38;;;;;;;12.83;1.90;;;;;;;;;;5016506;28;20263;-75
2023/03/11 01:40:04;;;;;;;6.13;2.30;;;;;;;;;;5013267;28;20280;-75
2023/03/11 01:42:30;;;;;;;18.00;2.43;;;;;;;;;;5015578;28;20280;-75
2023/03/11 01:44:58;;;;;;;7.93;1.53;;;;;;;;;;5015884;28;20766;-75
2023/03/11 01:47:33;;;;;;;10.67;1.60;;;;;;;;;;5032710;28;20022;-75
2023/03/11 01:50:00;;;;;;;10.90;1.67;;;;;;;;;;5024812;28;20284;-75
2023/03/11 01:52:26;;;;;;;13.13;2.10;;;;;;;;;;5016040;28;20616;-74
2023/03/11 01:54:52;;;;;;;8.43;1.80;;;;;;;;;;5016244;28;20768;-75
2023/03/11 01:57:18;;;;;;;8.70;1.77;;;;;;;;;;5028141;28;20276;-75
2023/03/11 01:59:48;;;;;;;13.57;2.57;;;;;;;;;;5028036;28;20033;-75
2023/03/11 02:02:19;;;;;;;13.43;1.80;;;;;;;;;;5003396;28;20757;-75
2023/03/11 02:04:48;;;;;;;9.37;2.00;;;;;;;;;;5017616;28;20268;-75
2023/03/11 02:07:14;;;;;;;7.67;1.67;;;;;;;;;;5014829;28;20318;-75
2023/03/11 02:09:40;;;;;;;11.57;1.77;;;;;;;;;;5034612;28;20363;-75
2023/03/11 02:12:07;;;;;;;11.33;1.73;;;;;;;;;;5018067;28;20355;-74
2023/03/11 02:14:34;;;;;;;10.53;1.97;;;;;;;;;;5026552;28;20287;-75
2023/03/11 02:17:03;;;;;;;10.00;1.83;;;;;;;;;;5012740;28;20652;-75
2023/03/11 02:19:44;;;;;;;11.57;2.17;;;;;;;;;;5013658;28;20287;-74
2023/03/11 02:22:11;;;;;;;12.07;2.20;;;;;;;;;;5032059;28;20288;-74
2023/03/11 02:24:48;;;;;;;9.20;2.47;;;;;;;;;;5011922;28;20275;-74
2023/03/11 02:27:16;;;;;;;15.23;2.27;;;;;;;;;;5015979;28;20292;-74
2023/03/11 02:29:43;;;;;;;10.50;2.30;;;;;;;;;;5008774;28;20367;-74
2023/03/11 02:32:09;;;;;;;7.70;2.23;;;;;;;;;;5012725;28;20275;-74
2023/03/11 02:34:36;;;;;;;18.60;3.03;;;;;;;;;;5009745;28;20291;-74
2023/03/11 02:37:07;;;;;;;13.13;2.30;;;;;;;;;;5012883;28;20277;-74
2023/03/11 02:39:46;;;;;;;9.83;2.00;;;;;;;;;;5017106;28;20554;-74
2023/03/11 02:42:15;;;;;;;10.03;2.07;;;;;;;;;;5029539;28;20295;-74
2023/03/11 02:44:42;;;;;;;11.37;2.57;;;;;;;;;;5029011;28;20271;-74
2023/03/11 02:47:08;;;;;;;5.83;1.90;;;;;;;;;;5019214;28;20355;-74
2023/03/11 02:49:35;;;;;;;12.90;3.20;;;;;;;;;;5030698;28;20743;-74
2023/03/11 02:52:01;;;;;;;11.97;2.33;;;;;;;;;;5033039;28;20363;-74
2023/03/11 02:54:27;;;;;;;9.33;2.00;;;;;;;;;;5015190;28;20367;-74
2023/03/11 02:56:56;;;;;;;7.27;2.10;;;;;;;;;;5016909;28;20041;-74
2023/03/11 02:59:22;;;;;;;10.50;1.53;;;;;;;;;;5033482;28;20041;-74
2023/03/11 03:01:48;;;;;;;9.03;1.70;;;;;;;;;;5019357;28;20363;-73
2023/03/11 03:04:14;;;;;;;8.93;1.97;;;;;;;;;;5036122;28;20030;-74
2023/03/11 03:06:39;;;;;;;10.00;1.30;;;;;;;;;;5035174;28;20017;-74
2023/03/11 03:09:05;;;;;;;7.90;1.50;;;;;;;;;;5011227;28;20057;-74
2023/03/11 03:11:34;;;;;;;5.47;1.30;;;;;;;;;;5015818;28;20342;-74
2023/03/11 03:14:00;;;;;;;12.60;2.00;;;;;;;;;;5020823;28;20030;-74
2023/03/11 03:16:26;;;;;;;12.27;1.60;;;;;;;;;;5035895;28;20294;-74
2023/03/11 03:18:52;;;;;;;7.47;2.00;;;;;;;;;;5017195;28;20025;-74
2023/03/11 03:21:18;;;;;;;8.17;1.97;;;;;;;;;;5034568;28;20037;-74
2023/03/11 03:23:44;;;;;;;10.80;1.63;;;;;;;;;;5021059;28;20371;-73
2023/03/11 03:26:12;;;;;;;5.90;1.67;;;;;;;;;;5025812;28;20030;-74
2023/03/11 03:28:38;;;;;;;6.13;1.17;;;;;;;;;;5019107;28;20041;-74
2023/03/11 03:31:05;;;;;;;9.07;1.60;;;;;;;;;;5030270;28;20303;-74
2023/03/11 03:33:31;;;;;;;8.83;1.87;;;;;;;;;;5032360;28;20025;-74
2023/03/11 03:35:57;;;;;;;6.67;1.97;;;;;;;;;;5035862;28;20272;-74
2023/03/11 03:38:23;;;;;;;10.67;1.50;;;;;;;;;;5035815;28;20761;-74
2023/03/11 03:40:49;;;;;;;7.77;1.70;;;;;;;;;;5035880;28;20033;-74
2023/03/11 03:43:15;;;;;;;12.03;2.60;;;;;;;;;;5033058;28;20414;-74
2023/03/11 03:45:41;;;;;;;5.93;1.40;;;;;;;;;;5029849;28;20029;-74
2023/03/11 03:48:07;;;;;;;5.87;1.50;;;;;;;;;;5026669;28;20091;-74
2023/03/11 03:50:33;;;;;;;10.03;1.73;;;;;;;;;;5019212;28;20276;-74
2023/03/11 03:52:59;;;;;;;12.50;1.77;;;;;;;;;;5024049;28;20287;-74
2023/03/11 03:55:25;;;;;;;15.10;2.53;;;;;;;;;;5016222;28;20029;-74
2023/03/11 03:57:51;;;;;;;8.63;1.90;;;;;;;;;;5035582;28;20035;-74
2023/03/11 04:00:17;;;;;;;11.27;3.47;;;;;;;;;;5035944;28;20370;-74
2023/03/11 04:02:45;;;;;;;7.83;3.90;;;;;;;;;;5017532;28;20083;-74
2023/03/11 04:05:13;;;;;;;8.20;1.70;;;;;;;;;;5024912;28;20673;-74
2023/03/11 04:07:39;;;;;;;18.53;2.70;;;;;;;;;;5015136;28;20637;-74
2023/03/11 04:10:08;;;;;;;12.13;2.43;;;;;;;;;;5015033;28;20299;-74
2023/03/11 04:12:34;;;;;;;7.87;2.43;;;;;;;;;;5033963;28;20037;-74
2023/03/11 04:15:00;;;;;;;8.50;2.20;;;;;;;;;;5034483;28;20340;-74
2023/03/11 04:17:26;;;;;;;9.47;1.73;;;;;;;;;;5034283;28;20363;-74
2023/03/11 04:19:52;;;;;;;8.93;2.07;;;;;;;;;;5018949;28;20033;-74
2023/03/11 04:22:18;;;;;;;8.77;2.30;;;;;;;;;;5012066;28;20064;-74
2023/03/11 04:24:44;;;;;;;7.80;1.40;;;;;;;;;;5015128;28;20296;-74
2023/03/11 04:27:10;;;;;;;7.77;2.13;;;;;;;;;;5033283;28;20442;-74
2023/03/11 04:29:36;;;;;;;11.03;2.60;;;;;;;;;;5032024;28;20022;-74
2023/03/11 04:32:02;;;;;;;8.77;2.20;;;;;;;;;;5006754;28;20423;-74
2023/03/11 04:34:30;;;;;;;9.37;2.03;;;;;;;;;;5018470;28;20029;-74
2023/03/11 04:36:59;;;;;;;14.33;2.80;;;;;;;;;;5029173;28;20391;-74
2023/03/11 04:39:25;;;;;;;8.60;1.83;;;;;;;;;;5016338;28;20619;-74
2023/03/11 04:41:51;;;;;;;13.30;2.10;;;;;;;;;;5009784;28;20277;-74
2023/03/11 04:44:17;;;;;;;9.60;2.40;;;;;;;;;;5007800;28;20037;-74
2023/03/11 04:46:43;;;;;;;8.43;2.90;;;;;;;;;;5034816;28;20032;-74
2023/03/11 04:49:09;;;;;;;7.37;2.13;;;;;;;;;;5034427;28;20034;-74
2023/03/11 04:51:35;;;;;;;5.40;2.10;;;;;;;;;;5029621;28;20892;-74
2023/03/11 04:54:01;;;;;;;14.50;2.27;;;;;;;;;;5030688;28;20034;-75
2023/03/11 04:56:27;;;;;;;9.43;2.27;;;;;;;;;;5014047;28;20100;-74
2023/03/11 04:58:53;;;;;;;13.33;2.37;;;;;;;;;;5033958;28;20617;-74
2023/03/11 05:01:19;;;;;;;6.67;2.40;;;;;;;;;;5023499;28;20061;-74
2023/03/11 05:03:45;;;;;;;10.83;2.70;;;;;;;;;;5018273;28;20072;-74
2023/03/11 05:06:11;;;;;;;12.80;2.20;;;;;;;;;;5023552;28;20446;-75
2023/03/11 05:08:39;;;;;;;10.20;2.80;;;;;;;;;;5024740;28;20264;-74
2023/03/11 05:11:06;;;;;;;6.90;2.10;;;;;;;;;;5029328;28;20083;-74
2023/03/11 05:13:32;;;;;;;11.97;2.70;;;;;;;;;;5016775;28;20304;-75
2023/03/11 05:15:58;;;;;;;5.10;2.30;;;;;;;;;;5032612;28;20739;-74
2023/03/11 05:18:24;;;;;;;8.97;2.27;;;;;;;;;;5033820;28;20041;-74
2023/03/11 05:20:50;;;;;;;16.23;2.67;;;;;;;;;;5011835;28;20041;-74
2023/03/11 05:23:16;;;;;;;14.93;3.17;;;;;;;;;;5026311;28;20072;-74
2023/03/11 05:25:44;;;;;;;11.70;2.77;;;;;;;;;;5018122;28;20658;-75
2023/03/11 05:28:10;;;;;;;6.20;2.10;;;;;;;;;;5031604;28;20667;-74
2023/03/11 05:30:39;;;;;;;11.87;2.50;;;;;;;;;;5031983;28;20417;-74
2023/03/11 05:33:05;;;;;;;11.40;2.80;;;;;;;;;;5027334;28;20798;-74
2023/03/11 05:35:30;;;;;;;7.80;1.70;;;;;;;;;;5016231;28;20352;-74
2023/03/11 05:37:59;;;;;;;7.83;2.07;;;;;;;;;;5033201;28;20033;-74
2023/03/11 05:40:25;;;;;;;14.13;2.63;;;;;;;;;;5029218;28;20064;-74
2023/03/11 05:42:51;;;;;;;7.23;2.43;;;;;;;;;;5012369;28;20316;-74
2023/03/11 05:45:17;;;;;;;13.80;2.63;;;;;;;;;;5014241;28;20462;-74
2023/03/11 05:47:43;;;;;;;15.23;2.07;;;;;;;;;;5015985;28;20025;-74
2023/03/11 05:50:10;;;;;;;11.67;2.10;;;;;;;;;;5008723;28;20307;-74
2023/03/11 05:52:36;;;;;;;17.90;2.67;;;;;;;;;;5011606;28;20279;-74
2023/03/11 05:55:02;;;;;;;13.70;2.53;;;;;;;;;;5029708;28;20276;-74
2023/03/11 05:57:28;;;;;;;11.10;2.40;;;;;;;;;;5020724;28;20037;-74
2023/03/11 05:59:54;;;;;;;13.37;2.57;;;;;;;;;;5017769;28;20772;-74
2023/03/11 06:02:20;;;;;;;11.17;1.70;;;;;;;;;;5024438;28;20045;-74
2023/03/11 06:04:47;;;;;;;9.03;2.13;;;;;;;;;;5019629;28;20018;-74
2023/03/11 06:07:15;;;;;;;12.33;2.10;;;;;;;;;;5030151;28;20271;-74
2023/03/11 06:09:43;;;;;;;10.17;2.77;;;;;;;;;;5029961;28;20284;-74
2023/03/11 06:12:09;;;;;;;17.57;2.60;;;;;;;;;;5024524;28;20338;-74
2023/03/11 06:14:37;;;;;;;8.83;1.60;;;;;;;;;;5013767;28;20637;-74
2023/03/11 06:17:03;;;;;;;9.93;2.10;;;;;;;;;;5032963;28;20579;-74
2023/03/11 06:19:29;;;;;;;4.90;1.73;;;;;;;;;;5009270;28;20732;-74
2023/03/11 06:21:55;;;;;;;8.07;1.50;;;;;;;;;;5015615;28;20416;-74
2023/03/11 06:24:21;;;;;;;10.83;1.80;;;;;;;;;;5032583;28;20030;-75
2023/03/11 06:26:53;;;;;;;11.60;2.27;;;;;;;;;;5017762;28;20779;-74
2023/03/11 06:29:23;;;;;;;13.73;1.90;;;;;;;;;;5016096;28;20389;-74
2023/03/11 06:31:49;;;;;;;8.73;2.27;;;;;;;;;;5036693;28;20029;-74
2023/03/11 06:34:15;;;;;;;6.97;1.57;;;;;;;;;;5036024;28;20291;-75
2023/03/11 06:36:41;;;;;;;16.23;2.50;;;;;;;;;;5021568;28;20125;-74
2023/03/11 06:39:07;;;;;;;7.53;2.50;;;;;;;;;;5017281;28;20311;-74
2023/03/11 06:41:34;;;;;;;10.27;2.20;;;;;;;;;;5031465;28;20300;-75
2023/03/11 06:44:03;;;;;;;7.57;2.07;;;;;;;;;;5020495;28;20284;-74
2023/03/11 06:46:29;;;;;;;8.23;2.00;;;;;;;;;;5029147;28;20287;-75
2023/03/11 06:48:55;;;;;;;7.83;1.90;;;;;;;;;;5036797;28;20264;-74
2023/03/11 06:51:21;;;;;;;10.47;2.73;;;;;;;;;;5029873;28;21874;-74
2023/03/11 06:53:55;;;;;;;8.60;3.53;;;;;;;;;;5015937;28;20038;-74
2023/03/11 06:56:22;;;;;;;14.73;3.20;;;;;;;;;;5025337;28;20280;-74
2023/03/11 06:58:48;;;;;;;12.57;2.63;;;;;;;;;;5010060;28;20355;-75
2023/03/11 07:01:17;;;;;;;11.27;3.27;;;;;;;;;;5029155;28;20847;-74
2023/03/11 07:03:45;;;;;;;9.13;2.70;;;;;;;;;;5012999;28;20280;-74
2023/03/11 07:06:12;;;;;;;10.50;2.70;;;;;;;;;;5011782;28;20284;-74
2023/03/11 07:08:41;;;;;;;11.77;2.87;;;;;;;;;;5025599;28;20355;-74
2023/03/11 07:11:12;;;;;;;12.83;2.63;;;;;;;;;;5024839;28;20280;-74
2023/03/11 07:13:38;;;;;;;14.50;3.30;;;;;;;;;;5013797;28;20276;-74
2023/03/11 07:16:06;;;;;;;10.27;2.50;;;;;;;;;;5027090;28;20331;-75
2023/03/11 07:18:32;;;;;;;10.90;2.90;;;;;;;;;;5012348;28;20285;-74
2023/03/11 07:20:58;;;;;;;11.27;2.90;;;;;;;;;;5025226;28;22027;-74
2023/03/11 07:23:24;;;;;;;12.17;2.87;;;;;;;;;;5012911;28;20386;-74
2023/03/11 07:25:51;;;;;;;8.57;2.90;;;;;;;;;;5026500;28;20095;-74
2023/03/11 07:28:17;;;;;;;9.23;2.33;;;;;;;;;;5008286;28;20060;-74
2023/03/11 07:30:45;;;;;;;11.53;3.80;;;;;;;;;;5022750;28;20741;-74
2023/03/11 07:33:12;;;;;;;13.60;2.90;;;;;;;;;;5025073;28;20080;-74
2023/03/11 07:35:38;;;;;;;13.10;3.17;;;;;;;;;;5027211;28;20332;-74
2023/03/11 07:38:04;;;;;;;18.43;4.53;;;;;;;;;;5006645;28;20371;-74
2023/03/11 07:40:30;;;;;;;15.17;3.93;;;;;;;;;;5011632;28;20450;-75
2023/03/11 07:42:56;;;;;;;14.80;2.93;;;;;;;;;;5022820;28;20112;-74
2023/03/11 07:45:24;;;;;;;16.33;3.00;;;;;;;;;;5026274;28;20026;-74
2023/03/11 07:47:52;;;;;;;12.53;2.60;;;;;;;;;;5011889;28;20099;-74
2023/03/11 07:50:21;;;;;;;15.37;3.17;;;;;;;;;;5012105;28;20355;-74
2023/03/11 07:52:47;;;;;;;17.00;2.63;;;;;;;;;;5012294;28;20292;-74
2023/03/11 07:55:13;;;;;;;11.87;2.67;;;;;;;;;;5012131;28;20303;-75
2023/03/11 07:57:42;;;;;;;10.17;2.40;;;;;;;;;;5007944;28;20284;-75
2023/03/11 08:00:09;;;;;;;13.43;2.97;;;;;;;;;;5006984;28;20287;-74
2023/03/11 08:02:35;;;;;;;16.30;3.97;;;;;;;;;;5009123;28;20285;-74
2023/03/11 08:05:01;;;;;;;10.13;2.90;;;;;;;;;;5014406;28;20279;-74
2023/03/11 08:07:27;;;;;;;5.17;2.43;;;;;;;;;;5016579;28;20040;-74
2023/03/11 08:09:54;;;;;;;13.03;3.37;;;;;;;;;;5009359;28;20281;-74
2023/03/11 08:12:20;;;;;;;9.73;2.87;;;;;;;;;;5026749;28;20031;-73
2023/03/11 08:14:46;;;;;;;11.30;3.13;;;;;;;;;;5013953;28;20284;-74
2023/03/11 08:17:12;;;;;;;11.20;2.87;;;;;;;;;;5016518;28;20042;-75
2023/03/11 08:19:38;;;;;;;8.27;2.37;;;;;;;;;;5020041;28;20029;-74
2023/03/11 08:22:04;;;;;;;8.17;2.30;;;;;;;;;;5017760;28;20450;-75
2023/03/11 08:24:33;;;;;;;9.87;2.53;;;;;;;;;;5028447;28;21689;-75
2023/03/11 08:26:59;;;;;;;13.80;3.50;;;;;;;;;;5025558;28;20751;-75
2023/03/11 08:29:25;;;;;;;13.13;2.83;;;;;;;;;;5023938;28;20280;-75
2023/03/11 08:31:51;;;;;;;8.30;1.97;;;;;;;;;;5011889;28;20277;-75
2023/03/11 08:34:17;;;;;;;8.83;3.47;;;;;;;;;;5010970;28;20037;-75
2023/03/11 08:36:46;;;;;;;10.60;2.20;;;;;;;;;;5009584;28;20089;-74
2023/03/11 08:39:12;;;;;;;6.37;2.07;;;;;;;;;;5026026;28;20287;-75
2023/03/11 08:41:40;;;;;;;8.37;2.40;;;;;;;;;;5026203;28;20297;-74
2023/03/11 08:44:06;;;;;;;6.33;1.80;;;;;;;;;;5023815;28;20330;-74
2023/03/11 08:46:33;;;;;;;3.97;1.50;;;;;;;;;;5011566;28;20370;-75
2023/03/11 08:49:00;;;;;;;5.73;1.30;;;;;;;;;;5024428;28;20029;-74
2023/03/11 08:51:26;;;;;;;8.07;1.30;;;;;;;;;;5015967;28;20347;-75
2023/03/11 08:53:53;;;;;;;8.53;1.70;;;;;;;;;;5027870;28;20311;-75
2023/03/11 08:56:19;;;;;;;9.90;2.23;;;;;;;;;;5025925;28;20720;-74
2023/03/11 08:58:45;;;;;;;6.30;1.83;;;;;;;;;;5014419;28;20352;-75
2023/03/11 09:01:12;;;;;;;4.10;1.67;;;;;;;;;;5005769;28;20265;-75
2023/03/11 09:03:38;;;;;;;14.73;2.13;;;;;;;;;;5016933;28;20026;-75
2023/03/11 09:06:06;;;;;;;12.03;2.33;;;;;;;;;;5032211;28;20280;-75
2023/03/11 09:08:32;;;;;;;7.50;2.77;;;;;;;;;;5041387;28;20728;-75
2023/03/11 09:10:58;;;;;;;5.70;2.40;;;;;;;;;;5020537;28;20257;-75
2023/03/11 09:13:27;;;;;;;9.30;1.87;;;;;;;;;;5030332;28;20025;-75
2023/03/11 09:15:53;;;;;;;4.73;1.50;;;;;;;;;;5027241;28;20464;-75
2023/03/11 09:18:22;;;;;;;6.80;1.90;;;;;;;;;;5009939;28;20022;-75
2023/03/11 09:20:48;;;;;;;7.77;1.43;;;;;;;;;;5014563;28;20033;-74
2023/03/11 09:23:17;;;;;;;4.40;1.43;;;;;;;;;;5018870;28;20296;-75
2023/03/11 09:25:44;;;;;;;4.20;1.17;;;;;;;;;;5026468;28;20257;-75
2023/03/11 09:28:10;;;;;;;6.33;1.83;;;;;;;;;;5013397;28;20025;-75
2023/03/11 09:30:36;;;;;;;8.27;1.30;;;;;;;;;;5015920;28;20037;-75
2023/03/11 09:33:02;;;;;;;7.37;1.00;;;;;;;;;;5017551;28;20083;-75
2023/03/11 09:35:28;;;;;;;4.80;1.33;;;;;;;;;;5014646;28;20040;-75
2023/03/11 09:37:56;;;;;;;3.30;1.20;;;;;;;;;;5026026;28;20405;-75
2023/03/11 09:40:22;;;;;;;7.87;1.70;;;;;;;;;;5032594;28;20025;-75
2023/03/11 09:43:01;;;;;;;7.57;1.40;;;;;;;;;;5014148;28;20033;-75
2023/03/11 09:45:29;;;;;;;5.67;0.63;;;;;;;;;;5011025;28;20036;-75
2023/03/11 09:48:01;;;;;;;6.87;1.20;;;;;;;;;;5028245;28;20136;-75
2023/03/11 09:50:29;;;;;;;4.18;1.27;;;;;;;;;;5026067;28;20026;-75
2023/03/11 09:53:03;;;;;;;7.07;1.17;;;;;;;;;;5017279;28;20052;-75
2023/03/11 09:55:42;;;;;;;7.10;1.07;;;;;;;;;;5034973;28;20029;-75
2023/03/11 09:58:13;;;;;;;5.93;0.90;;;;;;;;;;5033838;28;20056;-74
2023/03/11 10:00:39;;;;;;;6.20;1.10;;;;;;;;;;5023257;28;20084;-74
2023/03/11 10:03:07;;;;;;;7.57;1.93;;;;;;;;;;5005272;28;20121;-74
2023/03/11 10:05:35;;;;;;;1.97;1.00;;;;;;;;;;5027301;28;20340;-74
2023/03/11 10:08:23;;;;;;;4.90;1.10;;;;;;;;;;5029829;28;20018;-75
2023/03/11 10:10:54;;;;;;;1.60;0.90;;;;;;;;;;5015799;28;20395;-75
2023/03/11 10:13:22;;;;;;;5.77;1.27;;;;;;;;;;5026130;28;20029;-75
2023/03/11 10:16:09;;;;;;;4.50;1.00;;;;;;;;;;5033071;28;20104;-74
2023/03/11 10:18:42;;;;;;;5.63;1.00;;;;;;;;;;5022480;28;20109;-75
2023/03/11 10:21:20;;;;;;;5.65;0.60;;;;;;;;;;5034121;28;20048;-75
2023/03/11 10:23:52;;;;;;;4.37;1.13;;;;;;;;;;5026546;28;20037;-75
2023/03/11 10:26:20;;;;;;;4.80;1.08;;;;;;;;;;5027134;28;20087;-75
2023/03/11 10:28:48;;;;;;;1.83;0.93;;;;;;;;;;5013718;28;20022;-75
2023/03/11 10:31:17;;;;;;;5.90;0.90;;;;;;;;;;5017114;28;20091;-75
2023/03/11 10:33:45;;;;;;;1.23;0.60;;;;;;;;;;5017785;28;20367;-74
2023/03/11 10:36:17;;;;;;;3.70;0.83;;;;;;;;;;5010724;28;20030;-75
2023/03/11 10:38:46;;;;;;;1.42;0.55;;;;;;;;;;5019942;28;20049;-75
2023/03/11 10:41:15;;;;;;;5.03;0.73;;;;;;;;;;5009436;28;20026;-75
2023/03/11 10:43:44;;;;;;;4.93;1.10;;;;;;;;;;5031830;28;20073;-75
2023/03/11 10:46:23;;;;;;;7.97;0.93;;;;;;;;;;5024620;28;20050;-75
2023/03/11 10:48:49;;;;;;;7.87;1.40;;;;;;;;;;5031407;28;20029;-75
2023/03/11 10:51:22;;;;;;;7.23;1.13;;;;;;;;;;5023738;28;20021;-76
2023/03/11 10:53:54;;;;;;;4.43;0.97;;;;;;;;;;5029479;28;20022;-75
2023/03/11 10:56:28;;;;;;;7.13;0.80;;;;;;;;;;5034318;28;20064;-75
2023/03/11 10:58:54;;;;;;;8.53;1.10;;;;;;;;;;5021991;28;20038;-74
2023/03/11 11:01:21;;;;;;;7.53;1.27;;;;;;;;;;5016112;28;20025;-74
2023/03/11 11:03:48;;;;;;;5.87;1.00;;;;;;;;;;5011936;28;20029;-75
2023/03/11 11:06:34;;;;;;;8.67;2.07;;;;;;;;;;5031022;28;20022;-75
2023/03/11 11:09:14;;;;;;;10.77;2.33;;;;;;;;;;5020171;28;20022;-75
2023/03/11 11:11:40;;;;;;;7.93;1.40;;;;;;;;;;5017205;28;20079;-76
2023/03/11 11:14:08;;;;;;;2.30;0.83;;;;;;;;;;4999206;28;20033;-75
2023/03/11 11:16:34;;;;;;;5.80;1.27;;;;;;;;;;5004096;28;20032;-76
2023/03/11 11:19:07;;;;;;;7.53;1.00;;;;;;;;;;5010490;28;20029;-76
2023/03/11 11:21:33;;;;;;;;;;;;;;;;;;5022454;28;20451;-75
2023/03/11 11:24:17;;;;;;;3.63;1.03;;;;;;;;;;5020745;28;19905;-75
2023/03/11 11:27:02;;;;;;;2.93;0.73;;;;;;;;;;5018358;28;20032;-75
2023/03/11 11:29:31;;;;;;;2.60;0.50;;;;;;;;;;5032606;28;20030;-74
2023/03/11 11:32:17;;;;;;;6.87;1.43;;;;;;;;;;5032787;28;20044;-75
2023/03/11 11:34:52;;;;;;;4.90;1.10;;;;;;;;;;5010801;28;20103;-75
2023/03/11 11:37:19;;;;;;;7.37;0.90;;;;;;;;;;5034568;28;20457;-75
2023/03/11 11:39:53;;;;;;;3.27;0.93;;;;;;;;;;5030116;28;20025;-74
2023/03/11 11:42:19;;;;;;;7.67;1.60;;;;;;;;;;5032038;28;20116;-75
2023/03/11 11:44:49;;;;;;;3.60;0.80;;;;;;;;;;5018664;28;20089;-75
2023/03/11 11:47:24;;;;;;;2.57;1.37;;;;;;;;;;5017074;28;20026;-74
2023/03/11 11:49:54;;;;;;;6.00;0.87;;;;;;;;;;5024896;28;20400;-74
2023/03/11 11:52:24;;;;;;;3.10;0.90;;;;;;;;;;5018680;28;20137;-75
2023/03/11 11:55:08;;;;;;;8.23;1.40;;;;;;;;;;5022450;28;20369;-74
2023/03/11 11:57:34;;;;;;;4.10;1.13;;;;;;;;;;5023533;28;20039;-75
2023/03/11 12:00:04;;;;;;;3.33;0.90;;;;;;;;;;5025881;28;20041;-75
2023/03/11 12:02:42;;;;;;;4.77;0.90;;;;;;;;;;5015351;28;20022;-75
2023/03/11 12:05:15;;;;;;;4.07;1.00;;;;;;;;;;5024390;28;20156;-75
2023/03/11 12:07:44;;;;;;;6.05;1.60;;;;;;;;;;5035980;28;20025;-74
2023/03/11 12:10:32;;;;;;;8.30;1.17;;;;;;;;;;5017296;28;20104;-75
2023/03/11 12:13:15;;;;;;;4.83;1.07;;;;;;;;;;4999594;28;20022;-75
2023/03/11 12:15:44;;;;;;;2.37;0.90;;;;;;;;;;5018212;28;20042;-74
2023/03/11 12:18:17;;;;;;;2.57;0.80;;;;;;;;;;5017809;28;20022;-75
2023/03/11 12:20:49;;;;;;;2.60;0.80;;;;;;;;;;5010752;28;20109;-75
2023/03/11 12:23:15;;;;;;;;;;;;;;;;;;5013280;28;20171;-75
2023/03/11 12:25:57;;;;;;;10.47;1.50;;;;;;;;;;5017541;28;20313;-76
2023/03/11 12:28:35;;;;;;;4.78;0.85;;;;;;;;;;5029633;28;20113;-75
2023/03/11 12:31:03;;;;;;;4.10;1.17;;;;;;;;;;5027717;28;20029;-76
2023/03/11 12:33:31;;;;;;;3.73;1.10;;;;;;;;;;5018270;28;20026;-75
2023/03/11 12:35:58;;;;;;;4.77;1.20;;;;;;;;;;5029592;28;20069;-76
2023/03/11 12:38:24;;;;;;;2.23;0.97;;;;;;;;;;5021992;28;20039;-75
2023/03/11 12:40:57;;;;;;;5.03;1.00;;;;;;;;;;5024148;28;20120;-76
2023/03/11 12:43:24;;;;;;;5.23;0.87;;;;;;;;;;5014605;28;20048;-77
2023/03/11 12:45:54;;;;;;;6.73;1.10;;;;;;;;;;5026294;28;20021;-77
2023/03/11 12:48:29;;;;;;;3.47;1.00;;;;;;;;;;5028868;28;20033;-76
2023/03/11 12:50:59;;;;;;;4.97;1.00;;;;;;;;;;5015908;28;20473;-77
2023/03/11 12:53:44;;;;;;;3.00;1.50;;;;;;;;;;5026322;28;20414;-74
2023/03/11 12:56:15;;;;;;;4.77;0.80;;;;;;;;;;5025124;28;20037;-76
2023/03/11 12:58:56;;;;;;;5.45;1.02;;;;;;;;;;5007891;28;20033;-76
2023/03/11 13:01:45;;;;;;;4.70;0.60;;;;;;;;;;5011823;28;20033;-75
2023/03/11 13:04:30;;;;;;;9.10;1.50;;;;;;;;;;5009536;28;20049;-75
2023/03/11 13:07:04;;;;;;;2.40;0.80;;;;;;;;;;5008224;28;20033;-75
2023/03/11 13:09:30;;;;;;;5.70;0.90;;;;;;;;;;5008967;28;20037;-75
2023/03/11 13:11:56;;;;;;;4.73;1.00;;;;;;;;;;5015688;28;20037;-74
2023/03/11 13:14:28;;;;;;;8.77;0.80;;;;;;;;;;5009153;28;20061;-76
2023/03/11 13:16:55;;;;;;;4.65;0.63;;;;;;;;;;5006156;28;20037;-75
2023/03/11 13:19:27;;;;;;;3.47;1.57;;;;;;;;;;5009856;28;20060;-74
2023/03/11 13:21:58;;;;;;;3.55;0.82;;;;;;;;;;5021351;28;20402;-75
2023/03/11 13:24:33;;;;;;;3.83;1.07;;;;;;;;;;5027910;28;20104;-77
2023/03/11 13:26:59;;;;;;;4.33;0.70;;;;;;;;;;5012514;28;20043;-75
2023/03/11 13:29:28;;;;;;;3.93;1.20;;;;;;;;;;5028064;28;21622;-75
2023/03/11 13:31:54;;;;;;;7.57;1.17;;;;;;;;;;5023303;28;20025;-75
2023/03/11 13:34:40;;;;;;;5.20;1.53;;;;;;;;;;5025620;28;20040;-76
2023/03/11 13:37:06;;;;;;;10.17;1.00;;;;;;;;;;5005466;28;20029;-75
2023/03/11 13:39:49;;;;;;;13.07;2.60;;;;;;;;;;5004806;28;20039;-76
2023/03/11 13:42:27;;;;;;;7.90;1.45;;;;;;;;;;5010804;28;20087;-77
2023/03/11 13:44:53;;;;;;;13.90;2.40;;;;;;;;;;5023774;28;20041;-77
2023/03/11 13:47:20;;;;;;;6.57;1.53;;;;;;;;;;5012218;28;20021;-76
2023/03/11 13:50:01;;;;;;;3.47;1.20;;;;;;;;;;5005860;28;20117;-77
2023/03/11 13:52:31;;;;;;;5.00;1.03;;;;;;;;;;5012049;28;20033;-75
2023/03/11 13:55:03;;;;;;;4.43;1.17;;;;;;;;;;5025037;28;20061;-78
2023/03/11 13:57:34;;;;;;;10.32;1.80;;;;;;;;;;5024130;28;20046;-76
2023/03/11 14:00:23;;;;;;;8.13;0.97;;;;;;;;;;5005440;28;20458;-76
2023/03/11 14:03:00;;;;;;;7.23;1.40;;;;;;;;;;5023732;28;20029;-76
2023/03/11 14:05:31;;;;;;;5.73;1.23;;;;;;;;;;5010360;28;20118;-76
2023/03/11 14:08:15;;;;;;;5.53;1.50;;;;;;;;;;5007242;28;20681;-76
2023/03/11 14:10:51;;;;;;;6.70;1.50;;;;;;;;;;5023422;28;21594;-76
2023/03/11 14:13:18;;;;;;;7.90;1.80;;;;;;;;;;5023061;28;20044;-76
2023/03/11 14:15:53;;;;;;;4.93;1.37;;;;;;;;;;5022682;28;20029;-75
2023/03/11 14:18:25;;;;;;;4.77;1.10;;;;;;;;;;5010687;28;20034;-76
2023/03/11 14:20:51;;;;;;;9.55;2.35;;;;;;;;;;5012465;28;20025;-76
2023/03/11 14:23:18;;;;;;;4.90;1.07;;;;;;;;;;5005905;28;20454;-76
2023/03/11 14:25:44;;;;;;;9.43;1.50;;;;;;;;;;5023205;28;20060;-76
2023/03/11 14:28:20;;;;;;;4.17;0.97;;;;;;;;;;5010597;28;20081;-76
2023/03/11 14:30:57;;;;;;;2.97;1.13;;;;;;;;;;5025289;28;20030;-75
2023/03/11 14:33:23;;;;;;;3.90;1.17;;;;;;;;;;5023444;28;20040;-75
2023/03/11 14:35:53;;;;;;;3.73;0.77;;;;;;;;;;5011125;28;20037;-76
2023/03/11 14:38:23;;;;;;;4.13;0.93;;;;;;;;;;5011597;28;20079;-75
2023/03/11 14:40:52;;;;;;;4.27;1.20;;;;;;;;;;5010048;28;20029;-76
2023/03/11 14:43:19;;;;;;;4.63;1.20;;;;;;;;;;5010246;28;20032;-75
2023/03/11 14:45:46;;;;;;;5.47;0.80;;;;;;;;;;5024813;28;20107;-75
2023/03/11 14:48:32;;;;;;;6.47;1.30;;;;;;;;;;5010732;28;20022;-75
2023/03/11 14:50:59;;;;;;;5.77;1.40;;;;;;;;;;5011630;28;21620;-76